Time;durP1;ratioP1;P1;durP2;ratioP2;P2;SDS_P1;SDS_P2;PMS_P1;PMS_P2;Temp;Humidity;BMP_temperature;BMP_pressure;BME280_temperature;BME280_humidity;BME280_pressure;Samples;Min_cycle;Max_cycle;Signal;HPM_P1;HPM_P2
2023/04/24 00:02:16;;;;;;;0.70;0.70;;;14.00;94.80;;;;;;4955684;29;20464;-82
2023/04/24 00:05:11;;;;;;;0.77;0.77;;;14.20;94.50;;;;;;4946674;28;20504;-83
2023/04/24 00:07:47;;;;;;;1.20;1.10;;;14.10;94.50;;;;;;4937678;29;20489;-82
2023/04/24 00:10:39;;;;;;;0.83;0.70;;;14.10;94.60;;;;;;4961455;28;20449;-82
2023/04/24 00:13:09;;;;;;;1.00;0.90;;;14.10;94.70;;;;;;4983622;28;20490;-81
2023/04/24 00:15:53;;;;;;;1.13;0.70;;;14.10;94.70;;;;;;4986502;28;20468;-82
2023/04/24 00:18:59;;;;;;;0.80;0.80;;;14.00;94.90;;;;;;4954778;28;20489;-82
2023/04/24 00:21:34;;;;;;;1.90;1.00;;;14.10;95.00;;;;;;4957923;29;20463;-82
2023/04/24 00:24:20;;;;;;;0.87;0.87;;;13.90;95.10;;;;;;4954146;29;20479;-81
2023/04/24 00:27:06;;;;;;;1.07;0.97;;;13.80;95.50;;;;;;4953025;28;20468;-82
2023/04/24 00:29:34;;;;;;;1.10;1.00;;;14.00;95.70;;;;;;4951679;29;20535;-81
2023/04/24 00:32:05;;;;;;;3.03;1.20;;;14.10;95.30;;;;;;4958081;28;20485;-82
2023/04/24 00:34:48;;;;;;;0.70;0.70;;;14.10;95.40;;;;;;4963723;28;20456;-82
2023/04/24 00:37:18;;;;;;;0.90;0.90;;;14.00;95.20;;;;;;4954857;28;20485;-83
2023/04/24 00:39:50;;;;;;;1.13;1.03;;;13.90;95.50;;;;;;4962588;29;20438;-80
2023/04/24 00:42:39;;;;;;;1.17;1.00;;;13.80;95.80;;;;;;4967396;29;20471;-81
2023/04/24 00:45:19;;;;;;;0.80;0.80;;;13.80;96.00;;;;;;4967973;29;20492;-83
2023/04/24 00:47:59;;;;;;;0.97;0.93;;;13.80;96.10;;;;;;4963016;28;20499;-82
2023/04/24 00:50:51;;;;;;;0.80;0.80;;;13.80;96.00;;;;;;4967378;28;20468;-81
2023/04/24 00:53:28;;;;;;;1.30;1.20;;;13.90;95.80;;;;;;4952359;29;20540;-81
2023/04/24 00:56:08;;;;;;;1.20;1.10;;;13.80;95.30;;;;;;4950031;29;20876;-81
2023/04/24 00:58:54;;;;;;;;;;;;;;;;;;;;;
2023/04/24 01:01:30;;;;;;;0.93;0.90;;;13.70;94.50;;;;;;4968634;29;20464;-81
2023/04/24 01:04:12;;;;;;;1.20;1.10;;;13.80;94.30;;;;;;4971716;29;20536;-80
2023/04/24 01:06:54;;;;;;;1.33;1.23;;;13.90;93.80;;;;;;4975954;28;20445;-83
2023/04/24 01:09:41;;;;;;;1.67;1.10;;;13.80;93.80;;;;;;4970107;28;20475;-83
2023/04/24 01:12:28;;;;;;;0.73;0.73;;;13.70;93.80;;;;;;4975919;28;20556;-83
2023/04/24 01:15:04;;;;;;;1.30;1.10;;;13.70;93.80;;;;;;4961287;29;20532;-83
2023/04/24 01:17:39;;;;;;;1.00;1.00;;;13.70;93.40;;;;;;4959237;28;20519;-83
2023/04/24 01:20:16;;;;;;;2.20;1.37;;;13.60;93.40;;;;;;4958633;28;20449;-80
2023/04/24 01:22:57;;;;;;;1.43;1.33;;;13.60;93.30;;;;;;4960546;29;20469;-81
2023/04/24 01:25:51;;;;;;;1.27;1.20;;;13.60;93.00;;;;;;4955277;29;20881;-83
2023/04/24 01:28:33;;;;;;;1.37;1.07;;;13.60;92.60;;;;;;4962833;29;20515;-83
2023/04/24 01:31:15;;;;;;;2.10;1.40;;;13.70;92.40;;;;;;4959551;29;20484;-81
2023/04/24 01:34:00;;;;;;;1.20;1.10;;;13.60;92.00;;;;;;4958382;29;20512;-82
2023/04/24 01:36:42;;;;;;;1.43;1.27;;;13.60;91.80;;;;;;4957022;29;20473;-83
2023/04/24 01:39:20;;;;;;;2.43;1.53;;;13.70;91.60;;;;;;4985777;28;20464;-82
2023/04/24 01:42:15;;;;;;;1.60;1.40;;;13.50;91.70;;;;;;4953775;29;20520;-82
2023/04/24 01:44:47;;;;;;;2.70;2.50;;;13.50;91.90;;;;;;4954344;29;20468;-82
2023/04/24 01:47:32;;;;;;;2.47;2.27;;;13.50;91.90;;;;;;4951001;28;20492;-84
2023/04/24 01:50:31;;;;;;;2.80;2.60;;;13.40;91.50;;;;;;4982941;28;20483;-82
2023/04/24 01:53:21;;;;;;;2.80;2.57;;;13.30;91.50;;;;;;4978888;28;20443;-84
2023/04/24 01:55:48;;;;;;;3.17;2.97;;;13.20;91.50;;;;;;4954964;29;20564;-83
2023/04/24 01:58:16;;;;;;;3.47;3.17;;;13.10;91.40;;;;;;4957020;28;20992;-84
2023/04/24 02:00:42;;;;;;;3.47;3.17;;;13.00;91.50;;;;;;4955713;29;20459;-83
2023/04/24 02:03:09;;;;;;;3.93;3.30;;;13.00;91.90;;;;;;4958607;28;20461;-82
2023/04/24 02:05:38;;;;;;;3.17;2.60;;;12.90;91.70;;;;;;4965038;28;20440;-82
2023/04/24 02:08:05;;;;;;;5.10;3.40;;;12.90;91.70;;;;;;4959124;29;20465;-83
2023/04/24 02:10:32;;;;;;;4.40;3.57;;;12.80;91.90;;;;;;4958791;29;20457;-82
2023/04/24 02:13:00;;;;;;;3.87;3.10;;;12.80;91.90;;;;;;4959928;29;20524;-82
2023/04/24 02:15:27;;;;;;;5.53;3.83;;;12.80;92.00;;;;;;4958617;29;20499;-82
2023/04/24 02:17:54;;;;;;;5.10;3.70;;;12.70;92.00;;;;;;4956805;28;20959;-81
2023/04/24 02:20:21;;;;;;;5.90;3.57;;;12.60;92.30;;;;;;4956600;29;20546;-83
2023/04/24 02:22:48;;;;;;;3.10;2.80;;;12.50;92.30;;;;;;4956892;29;20471;-82
2023/04/24 02:25:15;;;;;;;4.73;3.57;;;12.50;92.50;;;;;;4989411;28;20457;-82
2023/04/24 02:27:42;;;;;;;5.30;4.00;;;12.40;92.70;;;;;;4961458;28;20511;-81
2023/04/24 02:30:09;;;;;;;5.10;3.50;;;12.40;92.90;;;;;;4958790;29;20480;-81
2023/04/24 02:32:36;;;;;;;3.80;3.40;;;12.40;93.00;;;;;;4958347;29;20480;-82
2023/04/24 02:35:04;;;;;;;4.40;3.80;;;12.30;93.20;;;;;;4962502;29;20471;-82
2023/04/24 02:37:31;;;;;;;4.20;3.50;;;12.40;93.30;;;;;;4968964;28;20495;-82
2023/04/24 02:39:58;;;;;;;3.77;3.37;;;12.50;93.00;;;;;;4960692;28;20483;-84
2023/04/24 02:42:25;;;;;;;5.60;3.30;;;12.70;92.60;;;;;;4996058;28;20457;-83
2023/04/24 02:44:52;;;;;;;3.47;3.13;;;12.40;92.70;;;;;;4964631;29;20462;-85
2023/04/24 02:47:18;;;;;;;6.77;4.03;;;12.40;92.90;;;;;;4961411;28;20484;-81
2023/04/24 02:49:45;;;;;;;4.87;3.30;;;12.30;93.00;;;;;;4960746;29;20456;-80
2023/04/24 02:52:13;;;;;;;4.37;3.90;;;12.10;93.40;;;;;;4960525;29;20524;-82
2023/04/24 02:54:40;;;;;;;5.33;3.87;;;12.10;93.70;;;;;;4957568;29;20460;-83
2023/04/24 02:57:06;;;;;;;4.47;4.00;;;12.20;93.70;;;;;;4959880;29;20455;-83
2023/04/24 02:59:33;;;;;;;8.53;4.43;;;12.30;93.30;;;;;;4959326;29;20556;-83
2023/04/24 03:02:01;;;;;;;5.93;5.07;;;12.20;93.40;;;;;;4958772;29;21092;-83
2023/04/24 03:04:28;;;;;;;4.07;3.50;;;12.10;93.60;;;;;;4959768;29;20465;-83
2023/04/24 03:06:55;;;;;;;6.23;5.00;;;12.10;93.70;;;;;;4971074;28;20572;-81
2023/04/24 03:09:22;;;;;;;5.60;5.10;;;12.50;93.30;;;;;;4963914;29;20453;-83
2023/04/24 03:11:49;;;;;;;6.30;5.17;;;12.30;93.10;;;;;;4955568;29;20529;-82
2023/04/24 03:14:16;;;;;;;5.10;4.70;;;12.50;93.10;;;;;;4958861;28;20516;-83
2023/04/24 03:16:43;;;;;;;6.33;5.73;;;12.30;92.90;;;;;;4958537;29;20456;-83
2023/04/24 03:19:10;;;;;;;5.67;5.03;;;12.20;93.30;;;;;;4958471;28;20483;-83
2023/04/24 03:21:40;;;;;;;5.93;5.33;;;12.40;93.00;;;;;;4953310;28;20934;-82
2023/04/24 03:24:08;;;;;;;4.93;4.40;;;12.20;93.00;;;;;;4958028;29;20564;-83
2023/04/24 03:26:35;;;;;;;5.13;4.33;;;12.20;93.20;;;;;;4958632;29;20506;-82
2023/04/24 03:29:02;;;;;;;5.30;4.73;;;12.20;93.40;;;;;;4958090;28;20481;-83
2023/04/24 03:31:29;;;;;;;5.63;5.13;;;12.20;93.60;;;;;;4957446;28;20499;-82
2023/04/24 03:33:56;;;;;;;5.30;4.80;;;12.40;93.20;;;;;;4956360;29;20457;-82
2023/04/24 03:36:23;;;;;;;5.27;4.77;;;12.40;92.80;;;;;;4958150;28;20468;-81
2023/04/24 03:38:50;;;;;;;6.63;4.83;;;12.30;92.80;;;;;;4952773;28;20471;-82
2023/04/24 03:41:16;;;;;;;5.13;4.60;;;12.20;93.00;;;;;;4957212;29;20471;-83
2023/04/24 03:43:43;;;;;;;6.60;5.57;;;12.30;92.90;;;;;;4958491;29;20453;-82
2023/04/24 03:46:10;;;;;;;5.80;5.30;;;12.10;92.60;;;;;;4952580;29;20880;-82
2023/04/24 03:48:37;;;;;;;6.03;5.10;;;12.30;92.70;;;;;;4956746;28;20486;-83
2023/04/24 03:51:04;;;;;;;5.43;4.93;;;12.10;92.50;;;;;;4957823;29;20464;-83
2023/04/24 03:53:31;;;;;;;6.10;5.50;;;11.90;92.90;;;;;;4957741;29;20484;-84
2023/04/24 03:55:58;;;;;;;5.20;4.70;;;12.00;93.10;;;;;;4956619;29;20900;-83
2023/04/24 03:58:25;;;;;;;7.23;5.33;;;12.10;92.80;;;;;;4954908;28;20481;-83
2023/04/24 04:00:52;;;;;;;6.00;5.33;;;12.10;92.80;;;;;;4952114;29;20453;-83
2023/04/24 04:03:19;;;;;;;5.87;5.30;;;12.30;92.70;;;;;;4964272;28;20528;-83
2023/04/24 04:05:46;;;;;;;5.97;5.47;;;12.30;92.60;;;;;;4959461;28;20449;-83
2023/04/24 04:10:58;;;;;;;6.83;5.37;;;12.40;91.90;;;;;;4959599;28;20483;-81
2023/04/24 04:13:33;;;;;;;6.67;5.40;;;12.40;91.90;;;;;;4957108;28;20948;-82
2023/04/24 04:16:16;;;;;;;4.97;4.47;;;12.30;92.20;;;;;;4988062;28;20531;-83
2023/04/24 04:18:52;;;;;;;6.17;5.03;;;12.10;92.50;;;;;;4955500;28;20471;-83
2023/04/24 04:21:52;;;;;;;;;;;;;;;;;;;;;
2023/04/24 04:24:40;;;;;;;6.83;4.23;;;12.00;92.70;;;;;;4958144;28;20449;-82
2023/04/24 04:27:18;;;;;;;7.47;5.40;;;12.00;92.90;;;;;;4961424;28;20620;-81
2023/04/24 04:29:49;;;;;;;5.77;4.73;;;12.20;92.60;;;;;;4956828;28;20445;-81
2023/04/24 04:32:26;;;;;;;5.50;5.00;;;12.10;92.60;;;;;;4959949;28;20900;-82
2023/04/24 04:35:13;;;;;;;5.20;4.70;;;12.00;92.70;;;;;;4959015;28;20484;-81
2023/04/24 04:40:22;;;;;;;5.33;4.80;;;12.00;92.90;;;;;;4955732;29;20512;-84
2023/04/24 04:43:15;;;;;;;5.17;4.67;;;12.00;93.20;;;;;;4939820;28;20910;-83
2023/04/24 04:45:57;;;;;;;6.63;4.00;;;12.00;93.20;;;;;;4956189;28;20444;-82
2023/04/24 04:48:41;;;;;;;4.33;3.70;;;11.90;93.30;;;;;;4957252;28;20513;-84
2023/04/24 04:51:28;;;;;;;4.13;3.73;;;11.90;93.30;;;;;;4954931;28;20498;-82
2023/04/24 04:54:29;;;;;;;5.00;3.20;;;11.90;93.30;;;;;;5095684;23;20492;-83
2023/04/24 04:57:05;;;;;;;3.50;3.20;;;11.90;93.30;;;;;;4967923;28;20448;-82
2023/04/24 05:02:51;;;;;;;3.80;3.40;;;12.00;93.50;;;;;;4081441;26;20499;-81
2023/04/24 05:05:41;;;;;;;5.63;3.03;;;12.10;93.30;;;;;;4936172;29;20532;-82
2023/04/24 05:08:20;;;;;;;2.50;2.23;;;12.10;93.20;;;;;;4939907;28;20468;-80
2023/04/24 05:11:27;;;;;;;3.20;2.57;;;12.10;93.30;;;;;;4941055;29;20536;-81
2023/04/24 05:17:46;;;;;;;2.30;2.10;;;12.00;93.80;;;;;;5629431;23;20454;-81
2023/04/24 05:20:20;;;;;;;3.10;2.07;;;12.00;93.60;;;;;;4995149;28;20462;-81
2023/04/24 05:26:32;;;;;;;2.30;2.10;;;12.10;93.60;;;;;;5102258;23;20491;-82
2023/04/24 05:29:18;;;;;;;2.67;1.90;;;12.10;93.70;;;;;;4984572;28;20896;-83
2023/04/24 05:34:36;;;;;;;2.00;1.90;;;12.00;93.80;;;;;;5104528;23;20494;-82
2023/04/24 05:37:09;;;;;;;3.13;2.03;;;12.10;93.90;;;;;;4975779;28;20623;-82
2023/04/24 05:39:43;;;;;;;1.70;1.60;;;12.10;93.90;;;;;;5266806;23;20485;-82
2023/04/24 05:42:37;;;;;;;3.03;2.73;;;12.10;94.00;;;;;;4990130;28;21246;-82
2023/04/24 05:45:38;;;;;;;2.50;2.30;;;12.20;94.00;;;;;;4972984;28;20511;-82
2023/04/24 05:48:32;;;;;;;3.83;2.30;;;12.10;94.00;;;;;;4981186;28;20482;-83
2023/04/24 05:51:25;;;;;;;2.20;2.10;;;12.10;94.40;;;;;;4977662;28;20542;-83
2023/04/24 05:54:23;;;;;;;2.50;2.30;;;12.20;94.30;;;;;;4977618;28;20487;-82
2023/04/24 05:57:07;;;;;;;2.80;2.60;;;12.20;94.40;;;;;;4976926;28;20526;-83
2023/04/24 06:02:28;;;;;;;2.30;1.83;;;11.80;94.90;;;;;;5061967;23;20539;-83
2023/04/24 06:05:33;;;;;;;3.23;2.20;;;12.00;95.00;;;;;;4979364;28;20965;-83
2023/04/24 06:08:42;;;;;;;2.80;2.57;;;12.00;94.80;;;;;;4974706;28;20476;-83
2023/04/24 06:11:16;;;;;;;2.50;2.30;;;12.00;94.80;;;;;;4975037;28;20480;-82
2023/04/24 06:13:56;;;;;;;2.70;2.10;;;12.00;95.00;;;;;;4985883;28;20486;-82
2023/04/24 06:16:52;;;;;;;2.37;2.17;;;12.10;95.10;;;;;;4989132;28;20431;-81
2023/04/24 06:19:43;;;;;;;3.53;2.67;;;12.10;94.90;;;;;;4987071;28;20444;-82
2023/04/24 06:22:19;;;;;;;3.33;2.63;;;12.10;95.10;;;;;;4985260;28;20437;-82
2023/04/24 06:25:10;;;;;;;2.23;1.93;;;12.00;95.30;;;;;;5132865;23;21095;-82
2023/04/24 06:30:56;;;;;;;2.80;2.23;;;11.80;96.30;;;;;;4981418;23;20568;-81
2023/04/24 06:36:49;;;;;;;0.93;0.80;;;11.80;96.30;;;;;;4891007;26;20493;-81
2023/04/24 06:39:38;;;;;;;0.87;0.87;;;11.90;95.60;;;;;;4924758;29;20451;-80
2023/04/24 06:42:25;;;;;;;1.27;1.10;;;11.70;95.90;;;;;;4926007;29;20455;-84
2023/04/24 06:45:27;;;;;;;1.30;1.20;;;11.60;96.90;;;;;;4924429;29;20490;-84
2023/04/24 06:47:59;;;;;;;0.97;0.93;;;11.50;98.00;;;;;;4928652;29;20478;-83
2023/04/24 06:50:28;;;;;;;1.30;1.20;;;11.60;98.20;;;;;;4927107;29;20493;-82
2023/04/24 06:53:10;;;;;;;1.00;1.00;;;11.70;98.00;;;;;;4942503;29;20482;-83
2023/04/24 06:55:54;;;;;;;1.00;1.00;;;11.60;98.30;;;;;;4929845;29;20442;-80
2023/04/24 06:58:30;;;;;;;0.87;0.87;;;11.60;98.50;;;;;;4922451;29;20562;-82
2023/04/24 07:01:14;;;;;;;0.80;0.80;;;11.40;99.10;;;;;;4935247;29;20478;-81
2023/04/24 07:04:00;;;;;;;0.80;0.80;;;11.30;99.70;;;;;;4932086;29;20473;-80
2023/04/24 07:06:33;;;;;;;0.80;0.80;;;11.30;99.90;;;;;;4941322;29;20443;-82
2023/04/24 07:09:01;;;;;;;1.13;1.03;;;11.40;99.90;;;;;;4942792;29;20542;-82
2023/04/24 07:11:41;;;;;;;0.80;0.80;;;11.40;99.90;;;;;;4939411;29;20510;-81
2023/04/24 07:14:13;;;;;;;0.80;0.80;;;11.40;99.90;;;;;;4939965;29;21108;-82
2023/04/24 07:17:14;;;;;;;1.03;0.83;;;11.40;99.90;;;;;;4930327;29;20534;-81
2023/04/24 07:19:48;;;;;;;0.70;0.63;;;11.40;99.90;;;;;;4924070;29;20454;-80
2023/04/24 07:22:25;;;;;;;0.93;0.77;;;11.60;99.90;;;;;;4929931;29;20469;-82
2023/04/24 07:25:01;;;;;;;0.70;0.70;;;11.50;99.90;;;;;;4934399;29;20451;-82
2023/04/24 07:27:31;;;;;;;1.23;0.73;;;11.60;99.90;;;;;;4926077;29;20481;-82
2023/04/24 07:30:20;;;;;;;;;;;;;;;;;;;;;
2023/04/24 07:32:50;;;;;;;0.53;0.53;;;11.30;99.90;;;;;;4936883;29;20506;-81
2023/04/24 07:36:06;;;;;;;0.70;0.70;;;11.20;99.90;;;;;;4936117;29;20479;-82
2023/04/24 07:39:16;;;;;;;1.10;0.93;;;11.10;99.90;;;;;;4933322;29;20499;-82
2023/04/24 07:41:58;;;;;;;0.60;0.60;;;11.20;99.90;;;;;;4953900;28;20462;-81
2023/04/24 07:45:15;;;;;;;0.50;0.50;;;11.10;99.90;;;;;;4929503;29;20881;-80
2023/04/24 07:47:57;;;;;;;0.60;0.60;;;10.90;99.90;;;;;;4939041;29;20478;-82
2023/04/24 07:50:40;;;;;;;0.40;0.37;;;10.80;99.90;;;;;;4931942;29;20487;-81
2023/04/24 07:53:21;;;;;;;0.50;0.50;;;10.80;99.90;;;;;;4935253;29;20481;-81
2023/04/24 07:56:38;;;;;;;0.50;0.40;;;10.60;99.90;;;;;;4923970;29;20494;-83
2023/04/24 07:59:14;;;;;;;0.57;0.57;;;10.60;99.90;;;;;;4894822;29;21077;-81
2023/04/24 08:01:58;;;;;;;0.50;0.50;;;10.60;99.90;;;;;;4919244;29;20454;-83
2023/04/24 08:04:28;;;;;;;0.60;0.60;;;10.50;99.90;;;;;;4921412;29;20467;-83
2023/04/24 08:07:00;;;;;;;1.47;1.37;;;10.40;99.90;;;;;;4916508;29;20540;-83
2023/04/24 08:09:33;;;;;;;0.50;0.50;;;10.40;99.90;;;;;;4923215;29;20841;-83
2023/04/24 08:12:17;;;;;;;0.80;0.70;;;10.40;99.90;;;;;;4918202;29;20454;-83
2023/04/24 08:15:08;;;;;;;0.60;0.60;;;10.40;99.90;;;;;;4937497;29;20450;-83
2023/04/24 08:17:39;;;;;;;0.40;0.40;;;10.40;99.90;;;;;;4923809;29;20490;-83
2023/04/24 08:20:23;;;;;;;0.47;0.40;;;10.30;99.90;;;;;;4921830;29;20493;-83
2023/04/24 08:22:56;;;;;;;0.67;0.57;;;10.30;99.90;;;;;;4939115;29;20461;-83
2023/04/24 08:25:30;;;;;;;0.50;0.40;;;10.20;99.90;;;;;;4924552;29;20533;-82
2023/04/24 08:27:59;;;;;;;0.47;0.47;;;10.20;99.90;;;;;;4924634;29;20488;-83
2023/04/24 08:30:26;;;;;;;0.50;0.50;;;10.10;99.90;;;;;;4922215;29;20881;-83
2023/04/24 08:33:02;;;;;;;0.40;0.40;;;10.00;99.90;;;;;;4924190;29;20844;-82
2023/04/24 08:35:32;;;;;;;0.53;0.50;;;9.90;99.90;;;;;;4923258;29;20450;-83
2023/04/24 08:37:59;;;;;;;0.40;0.40;;;9.90;99.90;;;;;;4920178;29;21075;-83
2023/04/24 08:40:41;;;;;;;0.40;0.40;;;9.90;99.90;;;;;;4932032;29;20469;-83
2023/04/24 08:43:21;;;;;;;0.60;0.60;;;9.90;99.90;;;;;;4917690;29;20446;-83
2023/04/24 08:45:51;;;;;;;0.40;0.40;;;9.90;99.90;;;;;;4916510;29;20477;-83
2023/04/24 08:48:38;;;;;;;0.57;0.57;;;9.90;99.90;;;;;;4927903;29;20481;-83
2023/04/24 08:51:16;;;;;;;1.70;0.70;;;9.90;99.90;;;;;;4932132;29;20455;-83
2023/04/24 08:53:57;;;;;;;2.20;0.80;;;9.90;99.90;;;;;;4914830;29;20522;-84
2023/04/24 08:56:39;;;;;;;0.70;0.60;;;9.90;99.90;;;;;;4922696;29;20920;-83
2023/04/24 08:59:19;;;;;;;0.60;0.60;;;9.90;99.90;;;;;;4920022;29;20882;-83
2023/04/24 09:02:12;;;;;;;0.73;0.53;;;9.90;99.90;;;;;;4914483;29;20447;-83
2023/04/24 09:04:58;;;;;;;0.50;0.50;;;9.90;99.90;;;;;;4917116;29;20458;-82
2023/04/24 09:07:36;;;;;;;1.90;1.80;;;9.90;99.90;;;;;;4930690;29;20479;-83
2023/04/24 09:10:30;;;;;;;2.63;0.90;;;9.90;99.90;;;;;;4928918;29;20459;-84
2023/04/24 09:13:01;;;;;;;1.00;1.00;;;9.90;99.90;;;;;;4927517;29;20492;-82
2023/04/24 09:15:32;;;;;;;0.90;0.70;;;9.90;99.90;;;;;;4921420;29;20443;-83
2023/04/24 09:18:05;;;;;;;0.97;0.87;;;9.90;99.90;;;;;;4918096;29;20469;-83
2023/04/24 09:20:55;;;;;;;1.00;0.80;;;9.90;99.90;;;;;;4919057;29;20478;-82
2023/04/24 09:23:55;;;;;;;1.57;1.40;;;9.90;99.90;;;;;;4920623;29;20471;-84
2023/04/24 09:26:48;;;;;;;1.70;1.60;;;10.00;99.90;;;;;;4917437;29;20454;-83
2023/04/24 09:29:41;;;;;;;1.57;1.43;;;10.10;99.90;;;;;;4915496;29;21016;-83
2023/04/24 09:32:31;;;;;;;2.77;1.67;;;10.10;99.90;;;;;;4914708;29;20458;-83
2023/04/24 09:35:16;;;;;;;1.90;1.43;;;10.10;99.90;;;;;;4928115;29;20474;-82
2023/04/24 09:38:03;;;;;;;1.30;1.20;;;10.10;99.90;;;;;;4916948;29;21247;-82
2023/04/24 09:40:50;;;;;;;2.53;1.93;;;10.20;99.90;;;;;;4909646;29;21203;-82
2023/04/24 09:43:20;;;;;;;1.90;1.70;;;10.20;99.90;;;;;;4913670;29;20447;-82
2023/04/24 09:45:59;;;;;;;1.93;1.77;;;10.20;99.90;;;;;;4917140;29;20490;-83
2023/04/24 09:48:41;;;;;;;2.20;2.00;;;10.30;99.90;;;;;;4914834;29;20649;-82
2023/04/24 09:51:39;;;;;;;1.60;1.50;;;10.30;99.90;;;;;;4933937;29;20958;-82
2023/04/24 09:54:22;;;;;;;1.83;1.73;;;10.40;99.90;;;;;;4917585;29;20498;-83
2023/04/24 09:56:54;;;;;;;1.77;1.60;;;10.40;99.90;;;;;;4912067;29;20533;-81
2023/04/24 09:59:30;;;;;;;2.83;1.90;;;10.50;99.90;;;;;;4908202;29;20987;-82
2023/04/24 10:02:16;;;;;;;2.00;1.90;;;10.60;99.90;;;;;;4929780;29;20458;-83
2023/04/24 10:05:01;;;;;;;2.80;1.93;;;10.60;99.90;;;;;;4916333;29;20489;-82
2023/04/24 10:07:37;;;;;;;1.73;1.63;;;10.80;99.90;;;;;;4929282;29;20505;-83
2023/04/24 10:10:11;;;;;;;1.97;1.87;;;10.80;99.90;;;;;;4913359;29;20466;-83
2023/04/24 10:12:44;;;;;;;2.23;1.77;;;10.80;99.90;;;;;;4900426;29;20570;-83
2023/04/24 10:15:29;;;;;;;1.90;1.70;;;10.90;99.90;;;;;;4914998;29;20485;-82
2023/04/24 10:18:08;;;;;;;4.43;1.80;;;10.90;99.90;;;;;;4915700;29;20488;-81
2023/04/24 10:20:40;;;;;;;2.13;1.57;;;11.00;99.90;;;;;;4926483;29;20462;-82
2023/04/24 10:23:23;;;;;;;2.17;1.97;;;11.10;99.90;;;;;;4912179;29;20534;-83
2023/04/24 10:26:06;;;;;;;1.30;1.20;;;11.20;99.90;;;;;;4917128;29;20455;-83
2023/04/24 10:28:41;;;;;;;1.50;1.20;;;11.30;99.90;;;;;;4922564;29;20507;-83
2023/04/24 10:31:14;;;;;;;1.33;1.23;;;11.30;99.90;;;;;;4933457;29;20463;-83
2023/04/24 10:33:59;;;;;;;1.73;1.27;;;11.30;99.90;;;;;;4910287;29;20478;-82
2023/04/24 10:36:39;;;;;;;1.80;1.53;;;11.30;99.90;;;;;;4923920;29;20462;-82
2023/04/24 10:39:27;;;;;;;2.60;1.10;;;11.30;99.90;;;;;;4920770;29;20485;-84
2023/04/24 10:42:15;;;;;;;1.27;1.17;;;11.30;99.90;;;;;;4915198;29;20471;-83
2023/04/24 10:44:49;;;;;;;1.53;1.43;;;11.40;99.90;;;;;;4930524;29;20477;-82
2023/04/24 10:47:25;;;;;;;1.47;1.10;;;11.40;99.90;;;;;;4934372;29;20482;-82
2023/04/24 10:50:23;;;;;;;2.40;1.77;;;11.40;99.90;;;;;;4932143;29;20545;-82
2023/04/24 10:52:52;;;;;;;1.77;1.67;;;11.40;99.90;;;;;;4925974;29;20463;-83
2023/04/24 10:55:59;;;;;;;1.27;1.00;;;11.40;99.90;;;;;;4925418;29;20446;-82
2023/04/24 10:59:37;;;;;;;1.17;1.07;;;11.50;99.90;;;;;;4891923;29;20470;-82
2023/04/24 11:02:40;;;;;;;1.50;1.40;;;11.60;99.90;;;;;;4921019;29;20454;-83
2023/04/24 11:05:07;;;;;;;1.73;1.40;;;11.80;99.90;;;;;;4920435;29;21045;-82
2023/04/24 11:09:05;;;;;;;2.43;1.30;;;11.90;99.90;;;;;;4922109;29;21012;-81
2023/04/24 11:12:13;;;;;;;1.60;1.50;;;12.00;99.90;;;;;;4846435;29;20458;-83
2023/04/24 11:15:10;;;;;;;1.87;1.50;;;12.10;99.90;;;;;;4863999;29;20523;-80
2023/04/24 11:18:06;;;;;;;1.90;1.80;;;12.00;99.90;;;;;;4914460;29;20538;-81
2023/04/24 11:21:07;;;;;;;2.13;1.80;;;12.00;99.90;;;;;;4916044;29;20562;-82
2023/04/24 11:23:37;;;;;;;6.50;1.73;;;12.00;99.90;;;;;;4917599;29;20552;-83
2023/04/24 11:26:38;;;;;;;3.27;1.97;;;12.10;99.90;;;;;;4918580;29;21064;-83
2023/04/24 11:29:42;;;;;;;4.47;1.60;;;12.10;99.90;;;;;;4912438;29;20472;-82
2023/04/24 11:32:49;;;;;;;1.47;1.37;;;12.00;99.90;;;;;;4916244;29;20518;-84
2023/04/24 11:35:45;;;;;;;1.60;1.43;;;12.20;99.90;;;;;;4893218;29;20467;-83
2023/04/24 11:38:27;;;;;;;1.67;1.53;;;12.30;99.90;;;;;;4915985;29;20474;-84
2023/04/24 11:41:15;;;;;;;1.60;1.50;;;12.60;99.90;;;;;;4915786;29;20450;-82
2023/04/24 11:44:05;;;;;;;1.70;1.60;;;12.50;99.90;;;;;;4917001;29;20470;-82
2023/04/24 11:46:58;;;;;;;2.43;1.83;;;12.50;99.90;;;;;;4921764;29;20452;-82
2023/04/24 11:49:31;;;;;;;1.57;1.47;;;12.40;99.90;;;;;;4917566;29;20455;-82
2023/04/24 11:52:18;;;;;;;4.33;1.77;;;12.50;99.90;;;;;;4930558;29;20469;-82
2023/04/24 11:55:01;;;;;;;1.70;1.60;;;12.60;99.90;;;;;;4916890;29;20521;-83
2023/04/24 11:57:50;;;;;;;2.20;2.00;;;12.80;99.90;;;;;;4931051;29;20487;-83
2023/04/24 12:00:35;;;;;;;1.20;1.10;;;12.90;99.60;;;;;;4917666;29;20980;-81
2023/04/24 12:03:31;;;;;;;1.87;1.67;;;13.00;98.70;;;;;;4918462;29;20518;-81
2023/04/24 12:06:14;;;;;;;1.73;1.63;;;13.00;98.20;;;;;;4935434;29;20461;-84
2023/04/24 12:09:03;;;;;;;1.60;1.40;;;13.10;98.40;;;;;;4920572;29;20967;-82
2023/04/24 12:11:56;;;;;;;1.40;1.20;;;13.20;98.60;;;;;;4916002;29;20467;-83
2023/04/24 12:14:58;;;;;;;1.60;1.47;;;13.40;97.80;;;;;;4911829;29;20518;-82
2023/04/24 12:18:03;;;;;;;1.63;1.53;;;13.40;97.20;;;;;;4917778;29;20482;-82
2023/04/24 12:21:14;;;;;;;1.60;1.50;;;13.40;97.10;;;;;;4914951;29;20478;-83
2023/04/24 12:23:58;;;;;;;2.10;1.53;;;13.40;96.90;;;;;;4923769;29;20431;-83
2023/04/24 12:26:31;;;;;;;1.50;1.40;;;13.30;96.00;;;;;;4933296;29;20549;-81
2023/04/24 12:29:27;;;;;;;1.90;1.80;;;13.30;96.10;;;;;;4862359;29;20979;-81
2023/04/24 12:32:26;;;;;;;2.23;1.90;;;13.20;96.50;;;;;;4865819;29;20473;-81
2023/04/24 12:35:10;;;;;;;3.00;2.13;;;13.10;96.80;;;;;;4861383;29;21266;-81
2023/04/24 12:37:53;;;;;;;1.83;1.67;;;13.00;96.50;;;;;;4863722;29;20512;-83
2023/04/24 12:40:34;;;;;;;2.27;2.07;;;13.00;96.90;;;;;;4864028;29;20452;-82
2023/04/24 12:43:24;;;;;;;1.77;1.60;;;13.00;96.70;;;;;;4863844;29;20465;-82
2023/04/24 12:45:56;;;;;;;2.00;1.90;;;13.20;96.60;;;;;;4856336;29;20468;-82
2023/04/24 12:48:38;;;;;;;1.63;1.50;;;13.30;96.00;;;;;;4879528;29;20468;-82
2023/04/24 12:51:19;;;;;;;2.30;1.90;;;13.40;95.70;;;;;;4865043;29;20476;-84
2023/04/24 12:54:10;;;;;;;2.60;2.40;;;13.50;95.60;;;;;;4865823;29;21000;-83
2023/04/24 12:56:57;;;;;;;2.07;1.87;;;13.60;95.30;;;;;;4863641;29;20525;-82
2023/04/24 12:59:39;;;;;;;3.37;2.10;;;13.50;95.00;;;;;;4856769;29;20468;-83
2023/04/24 13:02:22;;;;;;;2.30;2.10;;;13.50;94.90;;;;;;4856005;29;20511;-84
2023/04/24 13:05:02;;;;;;;2.03;1.83;;;13.40;94.90;;;;;;4881553;29;20452;-83
2023/04/24 13:07:47;;;;;;;3.30;2.27;;;13.30;95.10;;;;;;4873354;29;20623;-83
2023/04/24 13:10:24;;;;;;;5.20;2.33;;;13.40;95.10;;;;;;4908944;29;20451;-80
2023/04/24 13:13:13;;;;;;;4.00;2.90;;;13.50;95.30;;;;;;4921538;29;20454;-80
2023/04/24 13:15:43;;;;;;;3.77;2.57;;;13.50;95.10;;;;;;4924035;29;20482;-80
2023/04/24 13:21:21;;;;;;;3.40;2.67;;;13.60;94.70;;;;;;4886256;29;20461;-79
2023/04/24 13:24:13;;;;;;;2.27;2.03;;;13.50;94.40;;;;;;4924298;29;20491;-80
2023/04/24 13:27:06;;;;;;;2.20;2.00;;;13.50;93.90;;;;;;4929522;29;20962;-83
2023/04/24 13:29:48;;;;;;;2.43;1.73;;;13.40;93.70;;;;;;4913630;29;20482;-81
2023/04/24 13:33:29;;;;;;;;;;;;;;;;;;;;;
2023/04/24 13:36:48;;;;;;;2.47;2.27;;;13.30;93.00;;;;;;4886304;29;20574;-83
2023/04/24 13:43:10;;;;;;;2.57;2.40;;;13.40;92.20;;;;;;4917133;29;21261;-81
2023/04/24 13:45:53;;;;;;;2.13;2.00;;;13.70;92.00;;;;;;4919257;29;20467;-81
2023/04/24 13:48:49;;;;;;;2.43;2.23;;;14.00;91.70;;;;;;4918581;29;20469;-81
2023/04/24 13:51:43;;;;;;;2.40;2.10;;;14.00;90.40;;;;;;4905249;29;20466;-81
2023/04/24 13:54:23;;;;;;;3.67;2.17;;;13.90;90.40;;;;;;4921598;29;20531;-80
2023/04/24 13:57:04;;;;;;;2.53;2.30;;;13.90;90.60;;;;;;4904215;29;20464;-81
2023/04/24 13:59:37;;;;;;;2.20;2.10;;;13.90;90.80;;;;;;4921529;29;20478;-81
2023/04/24 14:02:30;;;;;;;2.77;2.30;;;13.90;91.10;;;;;;4936338;29;20989;-83
2023/04/24 14:05:18;;;;;;;2.97;2.20;;;13.90;91.30;;;;;;4930785;29;20491;-81
2023/04/24 14:11:40;;;;;;;2.67;2.30;;;14.10;90.20;;;;;;4921565;29;20470;-81
2023/04/24 14:14:54;;;;;;;1.90;1.70;;;14.10;90.30;;;;;;4921346;29;20529;-82
2023/04/24 14:18:26;;;;;;;2.10;1.90;;;14.30;90.40;;;;;;4919399;29;20486;-82
2023/04/24 14:21:08;;;;;;;3.73;2.97;;;14.30;90.00;;;;;;4912047;29;20469;-80
2023/04/24 14:24:25;;;;;;;2.17;1.97;;;14.10;88.50;;;;;;4939288;29;20462;-82
2023/04/24 14:27:34;;;;;;;2.10;1.90;;;14.10;88.50;;;;;;4917979;29;20477;-82
2023/04/24 14:30:37;;;;;;;2.50;1.83;;;14.10;88.00;;;;;;4920302;29;20482;-82
2023/04/24 14:33:21;;;;;;;2.60;1.97;;;14.10;87.70;;;;;;4906456;29;21345;-83
2023/04/24 14:36:05;;;;;;;1.97;1.87;;;14.10;86.70;;;;;;4929300;29;21416;-82
2023/04/24 14:38:57;;;;;;;;;;;;;;;;;;;;;
2023/04/24 14:41:46;;;;;;;2.23;2.03;;;14.40;85.00;;;;;;4924388;29;20467;-83
2023/04/24 14:44:30;;;;;;;1.87;1.70;;;14.40;84.20;;;;;;4924995;29;20863;-82
2023/04/24 14:47:25;;;;;;;4.90;2.10;;;14.50;83.00;;;;;;4924484;29;20470;-82
2023/04/24 14:50:20;;;;;;;2.30;2.17;;;14.50;81.90;;;;;;4919674;29;20545;-81
2023/04/24 14:53:18;;;;;;;;;;;;;;;;;;;;;